sensor_id;sensor_type;location;lat;lon;timestamp;pressure;altitude;pressure_sealevel;temperature;humidity
71764;BME280;59602;52.142;5.408;2023-12-04T00:00:31;101425.47;;;1.60;100.00
71764;BME280;59602;52.142;5.408;2023-12-04T00:02:58;101412.28;;;1.63;100.00
71764;BME280;59602;52.142;5.408;2023-12-04T00:05:25;101418.13;;;1.65;100.00
71764;BME280;59602;52.142;5.408;2023-12-04T00:07:52;101415.94;;;1.68;100.00
71764;BME280;59602;52.142;5.408;2023-12-04T00:10:20;101409.75;;;1.67;100.00
71764;BME280;59602;52.142;5.408;2023-12-04T00:12:46;101405.22;;;1.68;100.00
71764;BME280;59602;52.142;5.408;2023-12-04T00:15:13;101406.78;;;1.69;100.00
71764;BME280;59602;52.142;5.408;2023-12-04T00:17:40;101404.88;;;1.69;100.00
71764;BME280;59602;52.142;5.408;2023-12-04T00:20:08;101401.41;;;1.69;100.00
71764;BME280;59602;52.142;5.408;2023-12-04T00:22:38;101390.41;;;1.70;100.00
71764;BME280;59602;52.142;5.408;2023-12-04T00:25:06;101391.97;;;1.71;100.00
71764;BME280;59602;52.142;5.408;2023-12-04T00:27:33;101392.47;;;1.73;100.00
71764;BME280;59602;52.142;5.408;2023-12-04T00:30:00;101387.41;;;1.72;100.00
71764;BME280;59602;52.142;5.408;2023-12-04T00:32:27;101385.03;;;1.70;100.00
71764;BME280;59602;52.142;5.408;2023-12-04T00:34:53;101388.81;;;1.69;100.00
71764;BME280;59602;52.142;5.408;2023-12-04T00:37:20;101373.81;;;1.68;100.00
71764;BME280;59602;52.142;5.408;2023-12-04T00:39:47;101373.81;;;1.68;100.00
71764;BME280;59602;52.142;5.408;2023-12-04T00:42:13;101373.81;;;1.68;100.00
71764;BME280;59602;52.142;5.408;2023-12-04T00:44:40;101370.38;;;1.68;100.00
71764;BME280;59602;52.142;5.408;2023-12-04T00:47:07;101373.81;;;1.68;100.00
71764;BME280;59602;52.142;5.408;2023-12-04T00:49:34;101373.81;;;1.68;100.00
71764;BME280;59602;52.142;5.408;2023-12-04T00:52:00;101364.69;;;1.69;100.00
71764;BME280;59602;52.142;5.408;2023-12-04T00:54:27;101372.13;;;1.72;100.00
71764;BME280;59602;52.142;5.408;2023-12-04T00:56:55;101367.34;;;1.69;100.00
71764;BME280;59602;52.142;5.408;2023-12-04T00:59:21;101358.22;;;1.70;100.00
71764;BME280;59602;52.142;5.408;2023-12-04T01:01:48;101357.13;;;1.71;100.00
71764;BME280;59602;52.142;5.408;2023-12-04T01:04:15;101357.91;;;1.72;100.00
71764;BME280;59602;52.142;5.408;2023-12-04T01:06:41;101354.16;;;1.73;100.00
71764;BME280;59602;52.142;5.408;2023-12-04T01:09:08;101354.16;;;1.73;100.00
71764;BME280;59602;52.142;5.408;2023-12-04T01:11:35;101346.09;;;1.73;100.00
71764;BME280;59602;52.142;5.408;2023-12-04T01:14:03;101357.13;;;1.71;100.00
71764;BME280;59602;52.142;5.408;2023-12-04T01:16:30;101348.28;;;1.71;100.00
71764;BME280;59602;52.142;5.408;2023-12-04T01:18:58;101355.22;;;1.72;100.00
71764;BME280;59602;52.142;5.408;2023-12-04T01:21:25;101354.94;;;1.73;100.00
71764;BME280;59602;52.142;5.408;2023-12-04T01:23:52;101345.31;;;1.72;100.00
71764;BME280;59602;52.142;5.408;2023-12-04T01:26:19;101349.56;;;1.73;100.00
71764;BME280;59602;52.142;5.408;2023-12-04T01:28:45;101334.28;;;1.74;100.00
71764;BME280;59602;52.142;5.408;2023-12-04T01:31:12;101331.91;;;1.72;100.00
71764;BME280;59602;52.142;5.408;2023-12-04T01:33:39;101331.28;;;1.75;100.00
71764;BME280;59602;52.142;5.408;2023-12-04T01:36:06;101329.72;;;1.74;100.00
71764;BME280;59602;52.142;5.408;2023-12-04T01:38:33;101331.91;;;1.72;100.00
71764;BME280;59602;52.142;5.408;2023-12-04T01:41:04;101322.28;;;1.71;100.00
71764;BME280;59602;52.142;5.408;2023-12-04T01:43:32;101323.56;;;1.74;100.00
71764;BME280;59602;52.142;5.408;2023-12-04T01:46:00;101319.59;;;1.71;100.00
71764;BME280;59602;52.142;5.408;2023-12-04T01:48:28;101318.31;;;1.69;100.00
71764;BME280;59602;52.142;5.408;2023-12-04T01:50:56;101318.03;;;1.70;100.00
71764;BME280;59602;52.142;5.408;2023-12-04T01:53:24;101324.19;;;1.71;100.00
71764;BME280;59602;52.142;5.408;2023-12-04T01:55:51;101315.34;;;1.70;100.00
71764;BME280;59602;52.142;5.408;2023-12-04T01:58:18;101314.25;;;1.71;100.00
71764;BME280;59602;52.142;5.408;2023-12-04T02:00:45;101306.50;;;1.70;100.00
71764;BME280;59602;52.142;5.408;2023-12-04T02:03:12;101305.41;;;1.71;100.00
71764;BME280;59602;52.142;5.408;2023-12-04T02:05:40;101304.13;;;1.68;100.00
71764;BME280;59602;52.142;5.408;2023-12-04T02:08:07;101308.38;;;1.69;100.00
71764;BME280;59602;52.142;5.408;2023-12-04T02:10:34;101296.09;;;1.68;100.00
71764;BME280;59602;52.142;5.408;2023-12-04T02:13:01;101294.50;;;1.67;100.00
71764;BME280;59602;52.142;5.408;2023-12-04T02:15:28;101297.19;;;1.67;100.00
71764;BME280;59602;52.142;5.408;2023-12-04T02:17:55;101288.84;;;1.69;100.00
71764;BME280;59602;52.142;5.408;2023-12-04T02:20:33;101289.31;;;1.71;100.00
71764;BME280;59602;52.142;5.408;2023-12-04T02:23:01;101282.84;;;1.72;100.00
71764;BME280;59602;52.142;5.408;2023-12-04T02:25:29;101284.44;;;1.73;100.00
71764;BME280;59602;52.142;5.408;2023-12-04T02:28:06;101283.19;;;1.70;100.00
71764;BME280;59602;52.142;5.408;2023-12-04T02:30:35;101282.06;;;1.71;100.00
71764;BME280;59602;52.142;5.408;2023-12-04T02:33:05;101278.31;;;1.72;100.00
71764;BME280;59602;52.142;5.408;2023-12-04T02:35:34;101264.41;;;1.70;100.00
71764;BME280;59602;52.142;5.408;2023-12-04T02:38:02;101269.78;;;1.70;100.00
71764;BME280;59602;52.142;5.408;2023-12-04T02:40:29;101267.88;;;1.71;100.00
71764;BME280;59602;52.142;5.408;2023-12-04T02:42:56;101256.97;;;1.67;100.00
71764;BME280;59602;52.142;5.408;2023-12-04T02:45:22;101248.63;;;1.69;100.00
71764;BME280;59602;52.142;5.408;2023-12-04T02:47:49;101245.97;;;1.69;100.00
71764;BME280;59602;52.142;5.408;2023-12-04T02:50:16;101242.16;;;1.70;100.00
71764;BME280;59602;52.142;5.408;2023-12-04T02:52:43;101238.69;;;1.69;100.00
71764;BME280;59602;52.142;5.408;2023-12-04T02:55:09;101240.59;;;1.69;100.00
71764;BME280;59602;52.142;5.408;2023-12-04T02:57:36;101231.44;;;1.70;100.00
71764;BME280;59602;52.142;5.408;2023-12-04T03:00:03;101234.13;;;1.70;100.00
71764;BME280;59602;52.142;5.408;2023-12-04T03:02:31;101223.41;;;1.70;100.00
71764;BME280;59602;52.142;5.408;2023-12-04T03:04:57;101222.31;;;1.71;100.00
71764;BME280;59602;52.142;5.408;2023-12-04T03:07:24;101225.78;;;1.71;100.00
71764;BME280;59602;52.142;5.408;2023-12-04T03:09:53;101226.91;;;1.70;100.00
71764;BME280;59602;52.142;5.408;2023-12-04T03:12:20;101209.69;;;1.71;100.00
71764;BME280;59602;52.142;5.408;2023-12-04T03:14:47;101215.38;;;1.70;100.00
71764;BME280;59602;52.142;5.408;2023-12-04T03:17:13;101204.63;;;1.70;100.00
71764;BME280;59602;52.142;5.408;2023-12-04T03:19:40;101206.53;;;1.69;100.00
71764;BME280;59602;52.142;5.408;2023-12-04T03:22:07;101199.28;;;1.70;100.00
71764;BME280;59602;52.142;5.408;2023-12-04T03:24:34;101201.19;;;1.69;100.00
71764;BME280;59602;52.142;5.408;2023-12-04T03:27:01;101196.94;;;1.68;100.00
71764;BME280;59602;52.142;5.408;2023-12-04T03:29:28;101185.44;;;1.68;100.00
71764;BME280;59602;52.142;5.408;2023-12-04T03:31:56;101189.69;;;1.69;100.00
71764;BME280;59602;52.142;5.408;2023-12-04T03:34:22;101177.06;;;1.69;100.00
71764;BME280;59602;52.142;5.408;2023-12-04T03:36:50;101178.16;;;1.68;100.00
71764;BME280;59602;52.142;5.408;2023-12-04T03:39:17;101171.22;;;1.67;100.00
71764;BME280;59602;52.142;5.408;2023-12-04T03:41:44;101170.13;;;1.68;100.00
71764;BME280;59602;52.142;5.408;2023-12-04T03:44:11;101166.97;;;1.66;100.00
71764;BME280;59602;52.142;5.408;2023-12-04T03:46:38;101165.06;;;1.66;100.00
71764;BME280;59602;52.142;5.408;2023-12-04T03:49:05;101164.28;;;1.66;100.00
71764;BME280;59602;52.142;5.408;2023-12-04T03:51:34;101163.16;;;1.67;100.00
71764;BME280;59602;52.142;5.408;2023-12-04T03:54:00;101162.38;;;1.66;100.00
71764;BME280;59602;52.142;5.408;2023-12-04T03:56:27;101153.56;;;1.66;100.00
71764;BME280;59602;52.142;5.408;2023-12-04T03:58:54;101150.72;;;1.62;100.00
71764;BME280;59602;52.142;5.408;2023-12-04T04:01:21;101147.25;;;1.62;100.00
71764;BME280;59602;52.142;5.408;2023-12-04T04:03:47;101147.53;;;1.60;100.00
71764;BME280;59602;52.142;5.408;2023-12-04T04:06:14;101149.63;;;1.63;100.00
71764;BME280;59602;52.142;5.408;2023-12-04T04:08:41;101133.53;;;1.63;100.00
71764;BME280;59602;52.142;5.408;2023-12-04T04:11:08;101134.31;;;1.64;100.00
71764;BME280;59602;52.142;5.408;2023-12-04T04:13:35;101129.44;;;1.66;100.00
71764;BME280;59602;52.142;5.408;2023-12-04T04:16:02;101130.88;;;1.63;100.00
71764;BME280;59602;52.142;5.408;2023-12-04T04:18:28;101133.22;;;1.65;100.00
71764;BME280;59602;52.142;5.408;2023-12-04T04:20:55;101127.06;;;1.64;100.00
71764;BME280;59602;52.142;5.408;2023-12-04T04:23:22;101122.50;;;1.65;100.00
71764;BME280;59602;52.142;5.408;2023-12-04T04:25:49;101113.97;;;1.63;100.00
71764;BME280;59602;52.142;5.408;2023-12-04T04:28:16;101119.03;;;1.64;100.00
71764;BME280;59602;52.142;5.408;2023-12-04T04:30:42;101110.22;;;1.64;100.00
71764;BME280;59602;52.142;5.408;2023-12-04T04:33:09;101109.44;;;1.63;100.00
71764;BME280;59602;52.142;5.408;2023-12-04T04:35:37;101101.88;;;1.65;100.00
71764;BME280;59602;52.142;5.408;2023-12-04T04:38:04;101099.19;;;1.65;100.00
71764;BME280;59602;52.142;5.408;2023-12-04T04:40:31;101103.72;;;1.65;100.00
71764;BME280;59602;52.142;5.408;2023-12-04T04:42:58;101101.88;;;1.65;100.00
71764;BME280;59602;52.142;5.408;2023-12-04T04:45:24;101106.75;;;1.63;100.00
71764;BME280;59602;52.142;5.408;2023-12-04T04:47:51;101097.09;;;1.62;100.00
71764;BME280;59602;52.142;5.408;2023-12-04T04:50:17;101107.34;;;1.60;100.00
71764;BME280;59602;52.142;5.408;2023-12-04T04:52:44;101096.31;;;1.62;100.00
71764;BME280;59602;52.142;5.408;2023-12-04T04:55:11;101092.53;;;1.63;100.00
71764;BME280;59602;52.142;5.408;2023-12-04T04:57:57;101093.34;;;1.63;100.00
71764;BME280;59602;52.142;5.408;2023-12-04T05:00:24;101089.56;;;1.64;100.00
71764;BME280;59602;52.142;5.408;2023-12-04T05:02:51;101089.56;;;1.64;100.00
71764;BME280;59602;52.142;5.408;2023-12-04T05:05:18;101092.88;;;1.61;100.00
71764;BME280;59602;52.142;5.408;2023-12-04T05:07:45;101079.00;;;1.59;100.00
71764;BME280;59602;52.142;5.408;2023-12-04T05:10:11;101083.22;;;1.60;100.00
71764;BME280;59602;52.142;5.408;2023-12-04T05:12:38;101081.03;;;1.62;100.00
71764;BME280;59602;52.142;5.408;2023-12-04T05:15:05;101082.94;;;1.62;100.00
71764;BME280;59602;52.142;5.408;2023-12-04T05:17:32;101083.22;;;1.60;100.00
71764;BME280;59602;52.142;5.408;2023-12-04T05:19:58;101074.09;;;1.61;100.00
71764;BME280;59602;52.142;5.408;2023-12-04T05:22:25;101066.84;;;1.62;100.00
71764;BME280;59602;52.142;5.408;2023-12-04T05:24:52;101065.28;;;1.61;100.00
71764;BME280;59602;52.142;5.408;2023-12-04T05:27:19;101074.09;;;1.61;100.00
71764;BME280;59602;52.142;5.408;2023-12-04T05:29:45;101066.06;;;1.61;100.00
71764;BME280;59602;52.142;5.408;2023-12-04T05:32:13;101066.06;;;1.61;100.00
71764;BME280;59602;52.142;5.408;2023-12-04T05:34:39;101061.50;;;1.62;100.00
71764;BME280;59602;52.142;5.408;2023-12-04T05:37:06;101056.13;;;1.62;100.00
71764;BME280;59602;52.142;5.408;2023-12-04T05:39:33;101058.50;;;1.63;100.00
71764;BME280;59602;52.142;5.408;2023-12-04T05:42:00;101042.44;;;1.63;100.00
71764;BME280;59602;52.142;5.408;2023-12-04T05:44:27;101041.63;;;1.63;100.00
71764;BME280;59602;52.142;5.408;2023-12-04T05:46:54;101033.56;;;1.63;100.00
71764;BME280;59602;52.142;5.408;2023-12-04T05:49:20;101034.88;;;1.65;100.00
71764;BME280;59602;52.142;5.408;2023-12-04T05:51:48;101035.34;;;1.68;100.00
71764;BME280;59602;52.142;5.408;2023-12-04T05:54:15;101030.75;;;1.68;100.00
71764;BME280;59602;52.142;5.408;2023-12-04T05:56:41;101024.94;;;1.66;100.00
71764;BME280;59602;52.142;5.408;2023-12-04T05:59:09;101035.00;;;1.69;100.00
71764;BME280;59602;52.142;5.408;2023-12-04T06:01:36;101026.19;;;1.69;100.00
71764;BME280;59602;52.142;5.408;2023-12-04T06:04:03;101024.75;;;1.71;100.00
71764;BME280;59602;52.142;5.408;2023-12-04T06:06:30;101028.56;;;1.70;100.00
71764;BME280;59602;52.142;5.408;2023-12-04T06:08:56;101015.78;;;1.67;100.00
71764;BME280;59602;52.142;5.408;2023-12-04T06:11:23;101016.25;;;1.69;100.00
71764;BME280;59602;52.142;5.408;2023-12-04T06:13:50;101010.09;;;1.69;100.00
71764;BME280;59602;52.142;5.408;2023-12-04T06:16:16;101016.59;;;1.68;100.00
71764;BME280;59602;52.142;5.408;2023-12-04T06:18:43;101016.09;;;1.65;100.00
71764;BME280;59602;52.142;5.408;2023-12-04T06:21:10;101016.88;;;1.66;100.00
71764;BME280;59602;52.142;5.408;2023-12-04T06:23:37;101012.13;;;1.63;100.00
71764;BME280;59602;52.142;5.408;2023-12-04T06:26:04;101019.41;;;1.62;100.00
71764;BME280;59602;52.142;5.408;2023-12-04T06:28:31;101015.00;;;1.66;100.00
71764;BME280;59602;52.142;5.408;2023-12-04T06:30:59;101015.00;;;1.66;100.00
71764;BME280;59602;52.142;5.408;2023-12-04T06:33:27;101003.97;;;1.68;100.00
71764;BME280;59602;52.142;5.408;2023-12-04T06:35:54;101000.81;;;1.66;100.00
71764;BME280;59602;52.142;5.408;2023-12-04T06:38:24;101005.06;;;1.67;100.00
71764;BME280;59602;52.142;5.408;2023-12-04T06:40:51;100994.66;;;1.65;100.00
71764;BME280;59602;52.142;5.408;2023-12-04T06:43:18;100997.81;;;1.68;100.00
71764;BME280;59602;52.142;5.408;2023-12-04T06:45:46;100989.78;;;1.68;100.00
71764;BME280;59602;52.142;5.408;2023-12-04T06:48:13;100981.41;;;1.69;100.00
71764;BME280;59602;52.142;5.408;2023-12-04T06:50:40;100984.09;;;1.69;100.00
71764;BME280;59602;52.142;5.408;2023-12-04T06:53:07;100977.94;;;1.69;100.00
71764;BME280;59602;52.142;5.408;2023-12-04T06:55:33;100974.16;;;1.70;99.86
71764;BME280;59602;52.142;5.408;2023-12-04T06:58:00;100971.03;;;1.68;100.00
71764;BME280;59602;52.142;5.408;2023-12-04T07:00:27;100968.78;;;1.70;99.36
71764;BME280;59602;52.142;5.408;2023-12-04T07:02:53;100966.91;;;1.70;99.30
71764;BME280;59602;52.142;5.408;2023-12-04T07:05:20;100970.06;;;1.72;98.73
71764;BME280;59602;52.142;5.408;2023-12-04T07:07:48;100970.06;;;1.72;99.22
71764;BME280;59602;52.142;5.408;2023-12-04T07:10:14;100963.91;;;1.72;98.72
71764;BME280;59602;52.142;5.408;2023-12-04T07:12:42;100959.34;;;1.72;98.56
71764;BME280;59602;52.142;5.408;2023-12-04T07:15:10;100961.22;;;1.72;98.79
71764;BME280;59602;52.142;5.408;2023-12-04T07:17:38;100951.63;;;1.71;98.03
71764;BME280;59602;52.142;5.408;2023-12-04T07:20:06;100947.03;;;1.71;98.17
71764;BME280;59602;52.142;5.408;2023-12-04T07:22:33;100950.50;;;1.72;97.97
71764;BME280;59602;52.142;5.408;2023-12-04T07:25:05;100937.91;;;1.72;98.52
71764;BME280;59602;52.142;5.408;2023-12-04T07:28:09;100944.06;;;1.73;98.79
71764;BME280;59602;52.142;5.408;2023-12-04T07:36:20;100940.25;;;1.74;97.47
71764;BME280;59602;52.142;5.408;2023-12-04T07:44:09;100942.78;;;1.79;97.42
71764;BME280;59602;52.142;5.408;2023-12-04T07:46:36;100940.13;;;1.79;97.60
71764;BME280;59602;52.142;5.408;2023-12-04T07:49:03;100944.34;;;1.80;97.21
71764;BME280;59602;52.142;5.408;2023-12-04T07:51:30;100940.13;;;1.79;97.67
71764;BME280;59602;52.142;5.408;2023-12-04T07:53:57;100938.22;;;1.79;98.26
71764;BME280;59602;52.142;5.408;2023-12-04T07:56:27;100933.63;;;1.80;97.74
71764;BME280;59602;52.142;5.408;2023-12-04T07:58:54;100927.97;;;1.81;97.77
71764;BME280;59602;52.142;5.408;2023-12-04T08:01:20;100929.53;;;1.82;97.82
71764;BME280;59602;52.142;5.408;2023-12-04T08:03:51;100935.66;;;1.83;97.29
71764;BME280;59602;52.142;5.408;2023-12-04T08:06:18;100930.78;;;1.85;97.64
71764;BME280;59602;52.142;5.408;2023-12-04T08:08:45;100937.25;;;1.84;97.44
71764;BME280;59602;52.142;5.408;2023-12-04T08:11:14;100934.28;;;1.85;97.31
71764;BME280;59602;52.142;5.408;2023-12-04T08:13:42;100939.75;;;1.89;96.63
71764;BME280;59602;52.142;5.408;2023-12-04T08:16:15;100932.97;;;1.92;96.66
71764;BME280;59602;52.142;5.408;2023-12-04T08:18:42;100939.94;;;1.93;96.79
71764;BME280;59602;52.142;5.408;2023-12-04T08:21:10;100941.03;;;1.92;96.74
71764;BME280;59602;52.142;5.408;2023-12-04T08:23:38;100938.34;;;1.92;96.87
71764;BME280;59602;52.142;5.408;2023-12-04T08:26:05;100931.09;;;1.92;96.52
71764;BME280;59602;52.142;5.408;2023-12-04T08:28:33;100942.63;;;1.93;95.89
71764;BME280;59602;52.142;5.408;2023-12-04T08:31:00;100926.84;;;1.91;95.74
71764;BME280;59602;52.142;5.408;2023-12-04T08:33:27;100933.44;;;1.94;95.66
71764;BME280;59602;52.142;5.408;2023-12-04T08:35:54;100925.41;;;1.94;95.98
71764;BME280;59602;52.142;5.408;2023-12-04T08:38:20;100926.19;;;1.94;95.21
71764;BME280;59602;52.142;5.408;2023-12-04T08:40:47;100932.34;;;1.95;95.17
71764;BME280;59602;52.142;5.408;2023-12-04T08:43:14;100915.94;;;1.96;94.79
71764;BME280;59602;52.142;5.408;2023-12-04T08:45:41;100914.19;;;2.00;94.51
71764;BME280;59602;52.142;5.408;2023-12-04T08:48:08;100908.84;;;2.00;93.88
71764;BME280;59602;52.142;5.408;2023-12-04T08:50:35;100906.94;;;2.01;93.32
71764;BME280;59602;52.142;5.408;2023-12-04T08:53:02;100907.56;;;2.06;93.54
71764;BME280;59602;52.142;5.408;2023-12-04T08:55:29;100902.66;;;2.08;93.45
71764;BME280;59602;52.142;5.408;2023-12-04T08:57:56;100893.19;;;2.11;93.05
71764;BME280;59602;52.142;5.408;2023-12-04T09:00:23;100896.03;;;2.15;92.61
71764;BME280;59602;52.142;5.408;2023-12-04T09:02:49;100898.38;;;2.16;92.32
71764;BME280;59602;52.142;5.408;2023-12-04T09:05:31;100889.53;;;2.16;93.07
71764;BME280;59602;52.142;5.408;2023-12-04T09:07:58;100894.59;;;2.17;92.71
71764;BME280;59602;52.142;5.408;2023-12-04T09:10:46;100887.34;;;2.18;92.38
71764;BME280;59602;52.142;5.408;2023-12-04T09:13:34;100890.78;;;2.18;92.36
71764;BME280;59602;52.142;5.408;2023-12-04T09:16:01;100886.69;;;2.21;91.71
71764;BME280;59602;52.142;5.408;2023-12-04T09:18:27;100881.00;;;2.22;92.11
71764;BME280;59602;52.142;5.408;2023-12-04T09:20:55;100881.47;;;2.24;92.05
71764;BME280;59602;52.142;5.408;2023-12-04T09:23:21;100886.84;;;2.24;91.09
71764;BME280;59602;52.142;5.408;2023-12-04T09:25:50;100889.69;;;2.28;91.16
71764;BME280;59602;52.142;5.408;2023-12-04T09:28:17;100880.50;;;2.29;90.28
71764;BME280;59602;52.142;5.408;2023-12-04T09:30:44;100873.59;;;2.28;90.12
71764;BME280;59602;52.142;5.408;2023-12-04T09:33:11;100882.53;;;2.32;90.41
71764;BME280;59602;52.142;5.408;2023-12-04T09:35:38;100882.38;;;2.37;90.36
71764;BME280;59602;52.142;5.408;2023-12-04T09:38:05;100886.63;;;2.38;90.67
71764;BME280;59602;52.142;5.408;2023-12-04T09:40:32;100880.00;;;2.36;90.89
71764;BME280;59602;52.142;5.408;2023-12-04T09:42:59;100876.22;;;2.37;90.68
71764;BME280;59602;52.142;5.408;2023-12-04T09:45:26;100882.84;;;2.39;91.44
71764;BME280;59602;52.142;5.408;2023-12-04T09:47:56;100872.69;;;2.45;90.06
71764;BME280;59602;52.142;5.408;2023-12-04T09:50:23;100870.47;;;2.47;89.83
71764;BME280;59602;52.142;5.408;2023-12-04T09:52:50;100876.97;;;2.46;90.24
71764;BME280;59602;52.142;5.408;2023-12-04T09:55:17;100873.47;;;2.45;90.32
71764;BME280;59602;52.142;5.408;2023-12-04T09:57:45;100872.06;;;2.48;89.69
71764;BME280;59602;52.142;5.408;2023-12-04T10:00:15;100865.13;;;2.47;89.09
71764;BME280;59602;52.142;5.408;2023-12-04T10:02:43;100868.72;;;2.51;89.85
71764;BME280;59602;52.142;5.408;2023-12-04T10:05:10;100875.34;;;2.54;89.78
71764;BME280;59602;52.142;5.408;2023-12-04T10:07:36;100869.31;;;2.57;89.41
71764;BME280;59602;52.142;5.408;2023-12-04T10:10:06;100858.59;;;2.57;89.00
71764;BME280;59602;52.142;5.408;2023-12-04T10:12:32;100854.03;;;2.57;88.55
71764;BME280;59602;52.142;5.408;2023-12-04T10:15:08;100847.53;;;2.58;88.31
71764;BME280;59602;52.142;5.408;2023-12-04T10:17:37;100847.69;;;2.62;89.01
71764;BME280;59602;52.142;5.408;2023-12-04T10:20:05;100843.25;;;2.66;89.65
71764;BME280;59602;52.142;5.408;2023-12-04T10:22:52;100839.56;;;2.70;88.41
71764;BME280;59602;52.142;5.408;2023-12-04T10:25:20;100831.63;;;2.74;88.34
71764;BME280;59602;52.142;5.408;2023-12-04T10:27:47;100837.47;;;2.76;87.79
71764;BME280;59602;52.142;5.408;2023-12-04T10:30:33;100835.72;;;2.80;87.29
71764;BME280;59602;52.142;5.408;2023-12-04T10:33:01;100827.47;;;2.85;87.64
71764;BME280;59602;52.142;5.408;2023-12-04T10:35:30;100823.22;;;2.84;86.38
71764;BME280;59602;52.142;5.408;2023-12-04T10:37:58;100820.22;;;2.86;86.21
71764;BME280;59602;52.142;5.408;2023-12-04T10:40:31;100806.13;;;2.89;86.49
71764;BME280;59602;52.142;5.408;2023-12-04T10:43:33;100813.19;;;2.94;86.68
71764;BME280;59602;52.142;5.408;2023-12-04T10:46:00;100808.75;;;2.98;87.10
71764;BME280;59602;52.142;5.408;2023-12-04T10:48:32;100801.16;;;3.00;86.38
71764;BME280;59602;52.142;5.408;2023-12-04T10:51:07;100801.91;;;3.00;86.86
71764;BME280;59602;52.142;5.408;2023-12-04T10:53:36;100800.78;;;3.01;86.16
71764;BME280;59602;52.142;5.408;2023-12-04T10:56:10;100793.53;;;3.02;85.66
71764;BME280;59602;52.142;5.408;2023-12-04T10:58:41;100788.16;;;3.02;85.52
71764;BME280;59602;52.142;5.408;2023-12-04T11:01:22;100782.13;;;3.05;86.20
71764;BME280;59602;52.142;5.408;2023-12-04T11:04:08;100775.66;;;3.06;85.62
71764;BME280;59602;52.142;5.408;2023-12-04T11:09:24;100763.00;;;3.06;85.96
71764;BME280;59602;52.142;5.408;2023-12-04T11:12:07;100765.34;;;3.08;86.27
71764;BME280;59602;52.142;5.408;2023-12-04T11:14:42;100754.28;;;3.09;85.06
71764;BME280;59602;52.142;5.408;2023-12-04T11:17:12;100749.38;;;3.11;84.75
71764;BME280;59602;52.142;5.408;2023-12-04T11:22:14;100738.41;;;3.17;84.87
71764;BME280;59602;52.142;5.408;2023-12-04T11:24:42;100737.31;;;3.18;83.71
71764;BME280;59602;52.142;5.408;2023-12-04T11:27:09;100741.91;;;3.17;84.50
71764;BME280;59602;52.142;5.408;2023-12-04T11:29:37;100733.84;;;3.17;83.34
71764;BME280;59602;52.142;5.408;2023-12-04T11:32:06;100721.50;;;3.16;82.51
71764;BME280;59602;52.142;5.408;2023-12-04T11:34:35;100718.81;;;3.16;83.50
71764;BME280;59602;52.142;5.408;2023-12-04T11:37:02;100712.34;;;3.17;83.59
71764;BME280;59602;52.142;5.408;2023-12-04T11:39:33;100714.34;;;3.20;83.72
71764;BME280;59602;52.142;5.408;2023-12-04T11:42:06;100712.44;;;3.21;83.54
71764;BME280;59602;52.142;5.408;2023-12-04T11:44:33;100711.81;;;3.24;85.16
71764;BME280;59602;52.142;5.408;2023-12-04T11:47:05;100712.22;;;3.26;84.87
71764;BME280;59602;52.142;5.408;2023-12-04T11:49:32;100717.28;;;3.27;83.92
71764;BME280;59602;52.142;5.408;2023-12-04T11:52:01;100710.34;;;3.26;84.23
71764;BME280;59602;52.142;5.408;2023-12-04T11:57:27;100704.16;;;3.26;84.12
71764;BME280;59602;52.142;5.408;2023-12-04T12:05:38;100702.94;;;3.23;84.47
71764;BME280;59602;52.142;5.408;2023-12-04T12:08:08;100693.31;;;3.22;83.94
71764;BME280;59602;52.142;5.408;2023-12-04T12:10:35;100694.88;;;3.23;84.25
71764;BME280;59602;52.142;5.408;2023-12-04T12:13:02;100695.22;;;3.22;84.43
71764;BME280;59602;52.142;5.408;2023-12-04T12:15:30;100681.44;;;3.23;85.14
71764;BME280;59602;52.142;5.408;2023-12-04T12:17:57;100679.22;;;3.25;84.80
71764;BME280;59602;52.142;5.408;2023-12-04T12:20:24;100680.00;;;3.26;84.91
71764;BME280;59602;52.142;5.408;2023-12-04T12:22:51;100680.13;;;3.29;84.37
71764;BME280;59602;52.142;5.408;2023-12-04T12:25:18;100681.03;;;3.33;84.39
71764;BME280;59602;52.142;5.408;2023-12-04T12:27:45;100671.97;;;3.38;84.55
71764;BME280;59602;52.142;5.408;2023-12-04T12:30:14;100674.41;;;3.43;84.10
71764;BME280;59602;52.142;5.408;2023-12-04T12:32:41;100669.50;;;3.45;84.57
71764;BME280;59602;52.142;5.408;2023-12-04T12:35:12;100666.03;;;3.45;84.50
71764;BME280;59602;52.142;5.408;2023-12-04T12:37:41;100656.84;;;3.46;84.04
71764;BME280;59602;52.142;5.408;2023-12-04T12:40:09;100659.88;;;3.44;83.97
71764;BME280;59602;52.142;5.408;2023-12-04T12:42:37;100651.81;;;3.44;83.45
71764;BME280;59602;52.142;5.408;2023-12-04T12:45:09;100641.41;;;3.43;84.16
71764;BME280;59602;52.142;5.408;2023-12-04T12:48:13;100647.44;;;3.40;83.73
71764;BME280;59602;52.142;5.408;2023-12-04T12:50:44;100643.75;;;3.44;84.68
71764;BME280;59602;52.142;5.408;2023-12-04T12:53:11;100636.16;;;3.46;84.16
71764;BME280;59602;52.142;5.408;2023-12-04T12:55:41;100625.41;;;3.46;82.77
71764;BME280;59602;52.142;5.408;2023-12-04T12:58:10;100620.03;;;3.46;82.97
71764;BME280;59602;52.142;5.408;2023-12-04T13:00:40;100613.84;;;3.46;83.21
71764;BME280;59602;52.142;5.408;2023-12-04T13:03:16;100606.91;;;3.45;83.43
71764;BME280;59602;52.142;5.408;2023-12-04T13:05:44;100605.78;;;3.46;84.08
71764;BME280;59602;52.142;5.408;2023-12-04T13:08:16;100601.97;;;3.47;83.64
71764;BME280;59602;52.142;5.408;2023-12-04T13:10:42;100602.31;;;3.45;82.75
71764;BME280;59602;52.142;5.408;2023-12-04T13:13:13;100595.38;;;3.44;82.34
71764;BME280;59602;52.142;5.408;2023-12-04T13:15:41;100597.72;;;3.46;83.53
71764;BME280;59602;52.142;5.408;2023-12-04T13:18:08;100585.84;;;3.47;83.56
71764;BME280;59602;52.142;5.408;2023-12-04T13:20:35;100585.09;;;3.46;82.95
71764;BME280;59602;52.142;5.408;2023-12-04T13:23:02;100578.91;;;3.46;83.16
71764;BME280;59602;52.142;5.408;2023-12-04T13:25:29;100580.47;;;3.47;83.13